Time;durP1;ratioP1;P1;durP2;ratioP2;P2;SDS_P1;SDS_P2;PMS_P1;PMS_P2;Temp;Humidity;BMP_temperature;BMP_pressure;BME280_temperature;BME280_humidity;BME280_pressure;Samples;Min_cycle;Max_cycle;Signal;HPM_P1;HPM_P2
2023/04/21 00:02:07;;;;;;;17.52;11.95;;;;;;;;;;5071890;28;20345;-73
2023/04/21 00:04:33;;;;;;;13.85;10.90;;;;;;;;;;5055866;28;20083;-73
2023/04/21 00:07:03;;;;;;;14.48;11.02;;;;;;;;;;5069950;28;20105;-72
2023/04/21 00:09:29;;;;;;;15.90;11.05;;;;;;;;;;5069916;28;20093;-72
2023/04/21 00:11:55;;;;;;;15.15;10.50;;;;;;;;;;5053365;28;20170;-72
2023/04/21 00:14:21;;;;;;;13.52;9.88;;;;;;;;;;5070042;28;20064;-73
2023/04/21 00:16:51;;;;;;;15.23;9.95;;;;;;;;;;5064484;28;20052;-72
2023/04/21 00:19:18;;;;;;;15.60;11.50;;;;;;;;;;5051030;28;20182;-73
2023/04/21 00:21:45;;;;;;;12.98;9.70;;;;;;;;;;5068026;28;20040;-72
2023/04/21 00:24:11;;;;;;;;;;;;;;;;;;5062416;28;20045;-72
2023/04/21 00:26:37;;;;;;;15.30;10.60;;;;;;;;;;5065432;28;19920;-72
2023/04/21 00:29:03;;;;;;;12.63;9.85;;;;;;;;;;5070703;28;20070;-73
2023/04/21 00:31:29;;;;;;;17.25;11.00;;;;;;;;;;5069295;28;20047;-72
2023/04/21 00:33:55;;;;;;;13.75;9.82;;;;;;;;;;5052700;28;20040;-72
2023/04/21 00:36:23;;;;;;;15.32;9.95;;;;;;;;;;5069474;28;20495;-72
2023/04/21 00:38:49;;;;;;;13.80;9.80;;;;;;;;;;5069368;28;20454;-73
2023/04/21 00:41:16;;;;;;;16.13;10.85;;;;;;;;;;5052770;28;20040;-72
2023/04/21 00:44:01;;;;;;;14.18;9.82;;;;;;;;;;5069332;28;20447;-72
2023/04/21 00:46:27;;;;;;;15.18;10.60;;;;;;;;;;5057217;28;20044;-72
2023/04/21 00:48:53;;;;;;;14.63;10.45;;;;;;;;;;5068943;28;20093;-72
2023/04/21 00:51:19;;;;;;;20.08;11.85;;;;;;;;;;5055051;28;20059;-72
2023/04/21 00:53:46;;;;;;;13.57;10.10;;;;;;;;;;5056978;28;20119;-72
2023/04/21 00:56:12;;;;;;;13.65;10.07;;;;;;;;;;5050191;28;20496;-72
2023/04/21 00:58:41;;;;;;;15.75;10.93;;;;;;;;;;5069160;28;20182;-72
2023/04/21 01:01:07;;;;;;;15.65;11.88;;;;;;;;;;5068638;28;20040;-71
2023/04/21 01:03:34;;;;;;;16.95;11.98;;;;;;;;;;5102912;28;20044;-72
2023/04/21 01:06:00;;;;;;;17.85;11.20;;;;;;;;;;5070141;28;20101;-71
2023/04/21 01:08:26;;;;;;;15.50;10.43;;;;;;;;;;5070557;28;20047;-71
2023/04/21 01:10:52;;;;;;;;;;;;;;;;;;5069626;28;20036;-71
2023/04/21 01:13:21;;;;;;;17.50;11.80;;;;;;;;;;5052484;28;20339;-71
2023/04/21 01:15:47;;;;;;;14.50;10.82;;;;;;;;;;5057387;28;20055;-72
2023/04/21 01:18:13;;;;;;;;;;;;;;;;;;5063257;28;20140;-71
2023/04/21 01:20:39;;;;;;;17.38;11.80;;;;;;;;;;5091989;28;20074;-72
2023/04/21 01:23:09;;;;;;;13.52;10.65;;;;;;;;;;5050878;28;20544;-72
2023/04/21 01:25:35;;;;;;;17.63;11.75;;;;;;;;;;5063257;28;20044;-72
2023/04/21 01:28:01;;;;;;;14.80;11.23;;;;;;;;;;5068895;28;20052;-71
2023/04/21 01:30:27;;;;;;;17.40;11.80;;;;;;;;;;5068722;28;20041;-71
2023/04/21 01:32:53;;;;;;;16.30;12.63;;;;;;;;;;5102666;28;20041;-71
2023/04/21 01:35:19;;;;;;;18.45;11.48;;;;;;;;;;5068706;28;20036;-71
2023/04/21 01:37:46;;;;;;;16.98;10.85;;;;;;;;;;5063451;28;20048;-71
2023/04/21 01:40:12;;;;;;;15.55;11.25;;;;;;;;;;5086121;28;20073;-72
2023/04/21 01:42:39;;;;;;;15.65;11.88;;;;;;;;;;5066492;28;20456;-72
2023/04/21 01:45:05;;;;;;;14.15;10.65;;;;;;;;;;5068728;28;20043;-73
2023/04/21 01:47:32;;;;;;;15.27;11.02;;;;;;;;;;5068674;28;20056;-68
2023/04/21 01:49:58;;;;;;;18.00;11.75;;;;;;;;;;5068658;28;20044;-69
2023/04/21 01:52:24;;;;;;;17.33;11.02;;;;;;;;;;5068483;28;20396;-71
2023/04/21 01:54:50;;;;;;;15.23;10.60;;;;;;;;;;5082608;28;20119;-72
2023/04/21 01:57:16;;;;;;;16.77;11.35;;;;;;;;;;5075219;28;20048;-72
2023/04/21 01:59:42;;;;;;;;;;;;;;;;;;5076812;28;20048;-72
2023/04/21 02:02:09;;;;;;;17.13;11.90;;;;;;;;;;5072753;28;20019;-72
2023/04/21 02:04:35;;;;;;;17.25;11.82;;;;;;;;;;5055111;28;20059;-72
2023/04/21 02:07:01;;;;;;;14.48;10.63;;;;;;;;;;5074200;28;20049;-72
2023/04/21 02:09:27;;;;;;;18.38;11.38;;;;;;;;;;5073625;28;20036;-72
2023/04/21 02:11:56;;;;;;;16.25;11.73;;;;;;;;;;5072645;28;20036;-72
2023/04/21 02:14:22;;;;;;;15.05;10.43;;;;;;;;;;5079074;28;20140;-72
2023/04/21 02:16:48;;;;;;;18.90;11.80;;;;;;;;;;5079689;28;20057;-72
2023/04/21 02:19:14;;;;;;;16.75;11.68;;;;;;;;;;5060099;28;20146;-72
2023/04/21 02:21:40;;;;;;;19.98;11.77;;;;;;;;;;5081449;28;20103;-71
2023/04/21 02:24:06;;;;;;;16.42;11.40;;;;;;;;;;5072293;28;20049;-72
2023/04/21 02:26:32;;;;;;;15.38;11.50;;;;;;;;;;5072052;28;20571;-72
2023/04/21 02:28:59;;;;;;;17.25;12.32;;;;;;;;;;5086469;28;20044;-73
2023/04/21 02:31:25;;;;;;;16.08;11.18;;;;;;;;;;5071727;28;20041;-73
2023/04/21 02:33:51;;;;;;;16.60;10.65;;;;;;;;;;5072248;28;20098;-72
2023/04/21 02:36:17;;;;;;;15.45;11.13;;;;;;;;;;5085857;28;20072;-71
2023/04/21 02:38:43;;;;;;;18.30;12.20;;;;;;;;;;5071830;28;20090;-72
2023/04/21 02:41:09;;;;;;;14.75;10.88;;;;;;;;;;5085913;28;20498;-72
2023/04/21 02:43:35;;;;;;;13.45;10.40;;;;;;;;;;5081210;28;20054;-72
2023/04/21 02:46:07;;;;;;;14.30;10.00;;;;;;;;;;5091367;28;20075;-72
2023/04/21 02:48:34;;;;;;;14.02;10.70;;;;;;;;;;5071938;28;20134;-72
2023/04/21 02:51:00;;;;;;;15.85;11.05;;;;;;;;;;5085093;28;20036;-72
2023/04/21 02:53:27;;;;;;;16.80;12.30;;;;;;;;;;5077727;28;20070;-73
2023/04/21 02:55:53;;;;;;;16.38;11.18;;;;;;;;;;5080179;28;20056;-72
2023/04/21 02:58:19;;;;;;;19.77;11.90;;;;;;;;;;5072793;28;20048;-72
2023/04/21 03:00:45;;;;;;;15.95;10.60;;;;;;;;;;5071623;28;20044;-72
2023/04/21 03:03:11;;;;;;;17.98;11.82;;;;;;;;;;5068728;28;20055;-72
2023/04/21 03:05:37;;;;;;;17.60;12.30;;;;;;;;;;5062029;28;20040;-72
2023/04/21 03:08:03;;;;;;;16.38;11.18;;;;;;;;;;5079176;28;20468;-72
2023/04/21 03:10:29;;;;;;;18.98;12.90;;;;;;;;;;5078333;28;20045;-72
2023/04/21 03:12:55;;;;;;;15.07;11.07;;;;;;;;;;5062831;28;20044;-72
2023/04/21 03:15:22;;;;;;;14.88;11.40;;;;;;;;;;5085248;28;20043;-72
2023/04/21 03:17:48;;;;;;;17.33;11.68;;;;;;;;;;5071139;28;20052;-72
2023/04/21 03:20:14;;;;;;;15.00;11.15;;;;;;;;;;5085174;28;20055;-72
2023/04/21 03:22:41;;;;;;;15.02;11.00;;;;;;;;;;5070967;28;20499;-72
2023/04/21 03:25:07;;;;;;;18.17;12.60;;;;;;;;;;5072053;28;20040;-73
2023/04/21 03:27:33;;;;;;;15.10;11.15;;;;;;;;;;5056750;28;20071;-72
2023/04/21 03:29:59;;;;;;;;;;;;;;;;;;5071548;28;20062;-72
2023/04/21 03:32:25;;;;;;;17.55;10.73;;;;;;;;;;5084948;28;20224;-72
2023/04/21 03:34:52;;;;;;;16.38;11.05;;;;;;;;;;5054406;28;20040;-72
2023/04/21 03:37:18;;;;;;;15.65;11.57;;;;;;;;;;5054375;28;20399;-72
2023/04/21 03:39:44;;;;;;;18.00;11.63;;;;;;;;;;5053913;28;20087;-70
2023/04/21 03:42:10;;;;;;;17.42;11.63;;;;;;;;;;5070686;28;20481;-70
2023/04/21 03:44:36;;;;;;;15.88;10.88;;;;;;;;;;5073146;28;20048;-70
2023/04/21 03:47:03;;;;;;;16.10;10.57;;;;;;;;;;5082216;28;20090;-70
2023/04/21 03:49:29;;;;;;;13.75;10.35;;;;;;;;;;5070414;28;20171;-70
2023/04/21 03:51:55;;;;;;;;;;;;;;;;;;5071219;28;20036;-70
2023/04/21 03:54:21;;;;;;;19.25;10.57;;;;;;;;;;5070346;28;20390;-69
2023/04/21 03:56:47;;;;;;;16.52;10.75;;;;;;;;;;5108757;27;20048;-69
2023/04/21 03:59:14;;;;;;;15.77;10.40;;;;;;;;;;5090426;28;20079;-69
2023/04/21 04:01:41;;;;;;;;;;;;;;;;;;5067520;28;20184;-70
2023/04/21 04:04:07;;;;;;;13.13;9.70;;;;;;;;;;5070995;28;19927;-69
2023/04/21 04:06:34;;;;;;;18.33;11.60;;;;;;;;;;5077103;28;20102;-69
2023/04/21 04:09:03;;;;;;;18.67;10.85;;;;;;;;;;5069097;28;20070;-69
2023/04/21 04:11:29;;;;;;;14.18;9.57;;;;;;;;;;5076540;28;20080;-69
2023/04/21 04:13:55;;;;;;;;;;;;;;;;;;5070529;28;20414;-70
2023/04/21 04:16:21;;;;;;;16.48;11.13;;;;;;;;;;5069581;28;20015;-69
2023/04/21 04:18:49;;;;;;;16.83;10.93;;;;;;;;;;5069674;28;20055;-69
2023/04/21 04:21:15;;;;;;;15.48;9.98;;;;;;;;;;5052801;28;20054;-70
2023/04/21 04:23:41;;;;;;;13.63;10.10;;;;;;;;;;5052143;28;20125;-70
2023/04/21 04:26:08;;;;;;;15.05;10.32;;;;;;;;;;5076174;28;20477;-70
2023/04/21 04:28:34;;;;;;;15.63;10.15;;;;;;;;;;5069883;28;20040;-70
2023/04/21 04:31:01;;;;;;;12.93;9.27;;;;;;;;;;5076013;28;20029;-70
2023/04/21 04:33:28;;;;;;;12.68;9.63;;;;;;;;;;5062419;28;20391;-69
2023/04/21 04:35:54;;;;;;;13.57;9.45;;;;;;;;;;5076369;28;20040;-69
2023/04/21 04:38:21;;;;;;;13.18;9.07;;;;;;;;;;5076124;28;20157;-69
2023/04/21 04:40:57;;;;;;;15.18;10.60;;;;;;;;;;5059176;28;20037;-69
2023/04/21 04:43:24;;;;;;;15.65;10.15;;;;;;;;;;5052813;28;20127;-69
2023/04/21 04:45:50;;;;;;;12.38;9.73;;;;;;;;;;5081814;28;20610;-69
2023/04/21 04:48:16;;;;;;;12.13;8.77;;;;;;;;;;5067858;28;20071;-69
2023/04/21 04:50:42;;;;;;;14.07;10.38;;;;;;;;;;5080009;28;20039;-70
2023/04/21 04:53:08;;;;;;;15.07;9.57;;;;;;;;;;5086840;28;20577;-69
2023/04/21 04:55:35;;;;;;;11.30;8.23;;;;;;;;;;5077903;28;20054;-70
2023/04/21 04:58:01;;;;;;;13.77;9.40;;;;;;;;;;5074079;28;20442;-70
2023/04/21 05:00:28;;;;;;;16.30;9.23;;;;;;;;;;5059419;28;20048;-70
2023/04/21 05:02:54;;;;;;;13.07;9.10;;;;;;;;;;5076007;28;20048;-69
2023/04/21 05:05:21;;;;;;;12.02;8.85;;;;;;;;;;5073890;28;20135;-70
2023/04/21 05:07:47;;;;;;;;;;;;;;;;;;5078319;28;20055;-69
2023/04/21 05:10:13;;;;;;;11.45;8.57;;;;;;;;;;5087755;28;19919;-69
2023/04/21 05:12:39;;;;;;;15.13;9.52;;;;;;;;;;5081103;28;20055;-70
2023/04/21 05:15:06;;;;;;;16.05;10.05;;;;;;;;;;5052271;28;20131;-70
2023/04/21 05:17:32;;;;;;;13.93;8.90;;;;;;;;;;5076294;28;20052;-69
2023/04/21 05:19:59;;;;;;;13.05;8.75;;;;;;;;;;5075290;28;20406;-70
2023/04/21 05:22:25;;;;;;;18.42;9.70;;;;;;;;;;5074706;28;20059;-70
2023/04/21 05:24:52;;;;;;;10.80;8.30;;;;;;;;;;5081796;28;20040;-70
2023/04/21 05:27:18;;;;;;;13.10;8.43;;;;;;;;;;5068717;28;20094;-69
2023/04/21 05:29:44;;;;;;;11.90;8.15;;;;;;;;;;5080040;28;20043;-70
2023/04/21 05:32:11;;;;;;;13.80;8.60;;;;;;;;;;5106445;27;20055;-70
2023/04/21 05:34:37;;;;;;;13.55;9.00;;;;;;;;;;5068425;28;20484;-70
2023/04/21 05:37:03;;;;;;;16.42;9.15;;;;;;;;;;5070114;28;20049;-70
2023/04/21 05:39:30;;;;;;;12.85;9.10;;;;;;;;;;5082811;28;20271;-70
2023/04/21 05:41:56;;;;;;;;;;;;;;;;;;5081670;28;20043;-70
2023/04/21 05:44:24;;;;;;;16.02;9.10;;;;;;;;;;5073842;28;19962;-70
2023/04/21 05:46:50;;;;;;;13.02;8.48;;;;;;;;;;5051944;28;20074;-70
2023/04/21 05:49:16;;;;;;;14.38;8.90;;;;;;;;;;5068606;28;20040;-70
2023/04/21 05:51:42;;;;;;;12.93;8.35;;;;;;;;;;5082585;28;20226;-70
2023/04/21 05:54:08;;;;;;;13.65;7.85;;;;;;;;;;5068483;28;20354;-70
2023/04/21 05:56:34;;;;;;;12.60;8.38;;;;;;;;;;5068158;28;20056;-70
2023/04/21 05:59:00;;;;;;;10.80;7.70;;;;;;;;;;5068644;28;20048;-70
2023/04/21 06:01:26;;;;;;;12.80;7.95;;;;;;;;;;5082623;28;20491;-70
2023/04/21 06:03:52;;;;;;;13.60;8.25;;;;;;;;;;5051777;28;20487;-70
2023/04/21 06:06:19;;;;;;;13.50;7.45;;;;;;;;;;5081319;28;20055;-70
2023/04/21 06:08:45;;;;;;;11.25;7.97;;;;;;;;;;5074219;28;20123;-70
2023/04/21 06:11:11;;;;;;;12.43;7.60;;;;;;;;;;5077245;28;20040;-70
2023/04/21 06:13:37;;;;;;;12.02;7.70;;;;;;;;;;5082388;28;20040;-70
2023/04/21 06:16:03;;;;;;;10.77;7.28;;;;;;;;;;5077808;28;20390;-70
2023/04/21 06:18:29;;;;;;;13.55;6.85;;;;;;;;;;5056185;28;20585;-70
2023/04/21 06:20:56;;;;;;;13.73;7.85;;;;;;;;;;5068309;28;20150;-70
2023/04/21 06:23:22;;;;;;;11.30;6.95;;;;;;;;;;5068534;28;20052;-70
2023/04/21 06:25:59;;;;;;;12.75;7.00;;;;;;;;;;5071420;28;20045;-70
2023/04/21 06:28:25;;;;;;;13.75;7.15;;;;;;;;;;5081329;28;20063;-70
2023/04/21 06:30:51;;;;;;;12.43;8.02;;;;;;;;;;5083014;28;20098;-70
2023/04/21 06:33:17;;;;;;;10.88;6.50;;;;;;;;;;5051655;28;20079;-72
2023/04/21 06:35:43;;;;;;;10.20;6.15;;;;;;;;;;5068005;28;20037;-73
2023/04/21 06:38:09;;;;;;;10.75;6.30;;;;;;;;;;5068338;28;20483;-72
2023/04/21 06:40:36;;;;;;;10.20;6.93;;;;;;;;;;5067985;28;20134;-72
2023/04/21 06:43:02;;;;;;;11.98;7.75;;;;;;;;;;5075535;28;20047;-72
2023/04/21 06:45:28;;;;;;;13.05;6.82;;;;;;;;;;5089489;28;20039;-72
2023/04/21 06:47:54;;;;;;;8.80;6.22;;;;;;;;;;5076938;28;20055;-72
2023/04/21 06:50:20;;;;;;;11.52;7.15;;;;;;;;;;5067507;28;20052;-72
2023/04/21 06:52:46;;;;;;;10.73;5.97;;;;;;;;;;5073265;28;20043;-72
2023/04/21 06:55:12;;;;;;;11.63;7.07;;;;;;;;;;5071452;28;20118;-72
2023/04/21 06:57:38;;;;;;;14.23;7.28;;;;;;;;;;5083374;28;20052;-72
2023/04/21 07:00:04;;;;;;;11.02;6.97;;;;;;;;;;5073552;28;20094;-72
2023/04/21 07:02:30;;;;;;;9.23;6.22;;;;;;;;;;5071499;28;20140;-72
2023/04/21 07:04:57;;;;;;;10.68;6.82;;;;;;;;;;5071099;28;20112;-72
2023/04/21 07:07:23;;;;;;;14.50;7.50;;;;;;;;;;5080631;28;20119;-71
2023/04/21 07:09:49;;;;;;;11.23;6.10;;;;;;;;;;5077316;28;20045;-71
2023/04/21 07:12:15;;;;;;;9.45;6.25;;;;;;;;;;5057300;28;20052;-71
2023/04/21 07:14:41;;;;;;;10.63;6.57;;;;;;;;;;5054453;28;20036;-71
2023/04/21 07:17:07;;;;;;;8.30;5.80;;;;;;;;;;5071276;28;20041;-71
2023/04/21 07:19:33;;;;;;;13.68;6.85;;;;;;;;;;5054249;28;20566;-72
2023/04/21 07:21:59;;;;;;;8.73;5.80;;;;;;;;;;5070615;28;20105;-72
2023/04/21 07:24:25;;;;;;;12.15;6.75;;;;;;;;;;5066384;28;20052;-72
2023/04/21 07:26:51;;;;;;;8.93;5.75;;;;;;;;;;5070857;28;20544;-72
2023/04/21 07:29:17;;;;;;;9.82;6.13;;;;;;;;;;5044360;28;20137;-72
2023/04/21 07:31:45;;;;;;;;;;;;;;;;;;5079351;28;20085;-72
2023/04/21 07:34:11;;;;;;;10.18;5.60;;;;;;;;;;5070924;28;19923;-72
2023/04/21 07:36:37;;;;;;;10.65;5.68;;;;;;;;;;5070850;28;20080;-72
2023/04/21 07:39:04;;;;;;;10.98;6.10;;;;;;;;;;5070528;28;20055;-72
2023/04/21 07:41:30;;;;;;;;;;;;;;;;;;5063314;28;20054;-72
2023/04/21 07:43:56;;;;;;;9.88;5.70;;;;;;;;;;5075809;28;19916;-72
2023/04/21 07:46:28;;;;;;;7.40;4.97;;;;;;;;;;5088905;28;20478;-72
2023/04/21 07:48:54;;;;;;;11.25;6.05;;;;;;;;;;5080807;28;20527;-72
2023/04/21 07:51:20;;;;;;;;;;;;;;;;;;5070708;28;20519;-72
2023/04/21 07:53:46;;;;;;;8.23;5.60;;;;;;;;;;5070628;28;19920;-72
2023/04/21 07:56:13;;;;;;;7.68;5.30;;;;;;;;;;5070131;28;20048;-72
2023/04/21 07:58:40;;;;;;;8.85;5.97;;;;;;;;;;5070592;28;20074;-71
2023/04/21 08:01:06;;;;;;;;;;;;;;;;;;5071028;28;20081;-72
2023/04/21 08:03:32;;;;;;;10.55;5.85;;;;;;;;;;5069954;28;20385;-71
2023/04/21 08:05:58;;;;;;;11.05;6.00;;;;;;;;;;5053529;28;20234;-72
2023/04/21 08:08:24;;;;;;;8.23;5.40;;;;;;;;;;5071325;28;20054;-72
2023/04/21 08:10:50;;;;;;;8.88;6.20;;;;;;;;;;5078674;28;20051;-72
2023/04/21 08:13:16;;;;;;;10.25;5.30;;;;;;;;;;5077022;28;20502;-73
2023/04/21 08:15:42;;;;;;;9.90;5.85;;;;;;;;;;5050090;28;20037;-73
2023/04/21 08:18:08;;;;;;;9.80;5.95;;;;;;;;;;5045960;28;20048;-72
2023/04/21 08:20:35;;;;;;;7.47;5.13;;;;;;;;;;5071019;28;20055;-72
2023/04/21 08:23:01;;;;;;;;;;;;;;;;;;5070177;28;20044;-72
2023/04/21 08:25:27;;;;;;;10.75;5.90;;;;;;;;;;5075414;28;19917;-72
2023/04/21 08:27:53;;;;;;;;;;;;;;;;;;5090069;28;20487;-72
2023/04/21 08:30:19;;;;;;;14.80;6.70;;;;;;;;;;5072089;28;19927;-72
2023/04/21 08:32:45;;;;;;;10.25;5.80;;;;;;;;;;5069719;28;20074;-72
2023/04/21 08:35:11;;;;;;;13.60;5.90;;;;;;;;;;5071349;28;20071;-72
2023/04/21 08:37:37;;;;;;;;;;;;;;;;;;5070069;28;20044;-72
2023/04/21 08:40:04;;;;;;;10.02;6.22;;;;;;;;;;5069398;28;20412;-73
2023/04/21 08:42:30;;;;;;;9.57;5.55;;;;;;;;;;5072488;28;20043;-73
2023/04/21 08:44:56;;;;;;;;;;;;;;;;;;5086177;28;20044;-72
2023/04/21 08:47:23;;;;;;;13.35;6.25;;;;;;;;;;5078177;28;19931;-72
2023/04/21 08:49:50;;;;;;;10.88;6.07;;;;;;;;;;5072502;28;20040;-73
2023/04/21 08:52:17;;;;;;;9.93;6.00;;;;;;;;;;5089643;28;20036;-73
2023/04/21 08:54:43;;;;;;;11.13;5.75;;;;;;;;;;5073560;28;20044;-74
2023/04/21 08:57:09;;;;;;;;;;;;;;;;;;5078897;28;20054;-73
2023/04/21 08:59:35;;;;;;;11.25;6.25;;;;;;;;;;5089228;28;19920;-73
2023/04/21 09:02:01;;;;;;;;;;;;;;;;;;5075454;28;20061;-73
2023/04/21 09:04:30;;;;;;;8.32;5.72;;;;;;;;;;5077465;28;19916;-73
2023/04/21 09:06:56;;;;;;;11.95;6.05;;;;;;;;;;5083489;28;20095;-73
2023/04/21 09:09:22;;;;;;;10.05;5.70;;;;;;;;;;5052100;28;20033;-73
2023/04/21 09:11:48;;;;;;;;;;;;;;;;;;5069282;28;20071;-73
2023/04/21 09:14:14;;;;;;;11.35;6.10;;;;;;;;;;5068992;28;19920;-73
2023/04/21 09:16:42;;;;;;;14.20;6.00;;;;;;;;;;5068828;28;20117;-72
2023/04/21 09:19:15;;;;;;;8.73;5.57;;;;;;;;;;5102959;28;20040;-72
2023/04/21 09:21:43;;;;;;;7.72;5.63;;;;;;;;;;5066099;28;20070;-72
2023/04/21 09:24:09;;;;;;;8.63;5.15;;;;;;;;;;5083062;28;20080;-73
2023/04/21 09:26:35;;;;;;;9.27;4.85;;;;;;;;;;5081101;28;20441;-72
2023/04/21 09:29:01;;;;;;;;;;;;;;;;;;5071049;28;20044;-72
2023/04/21 09:31:27;;;;;;;9.45;5.47;;;;;;;;;;5068687;28;19920;-72
2023/04/21 09:33:57;;;;;;;7.90;5.22;;;;;;;;;;5068677;28;20135;-72
2023/04/21 09:36:24;;;;;;;9.57;5.63;;;;;;;;;;5052216;28;20041;-72
2023/04/21 09:38:54;;;;;;;11.38;6.03;;;;;;;;;;5082769;28;20048;-73
2023/04/21 09:41:20;;;;;;;8.90;4.90;;;;;;;;;;5068722;28;20040;-73
2023/04/21 09:43:47;;;;;;;9.85;5.45;;;;;;;;;;5082314;28;20040;-72
2023/04/21 09:46:15;;;;;;;10.38;5.10;;;;;;;;;;5068665;28;20055;-73
2023/04/21 09:48:43;;;;;;;8.35;4.53;;;;;;;;;;5052160;28;20099;-72
2023/04/21 09:51:11;;;;;;;11.02;5.30;;;;;;;;;;5068487;28;20105;-72
2023/04/21 09:53:38;;;;;;;10.45;5.35;;;;;;;;;;5075301;28;20486;-72
2023/04/21 09:56:05;;;;;;;10.18;5.15;;;;;;;;;;5075572;28;20139;-73
2023/04/21 09:58:35;;;;;;;11.02;5.43;;;;;;;;;;5068261;28;20186;-72
2023/04/21 10:01:03;;;;;;;10.45;5.30;;;;;;;;;;5080454;28;20039;-72
2023/04/21 10:03:30;;;;;;;10.68;5.70;;;;;;;;;;5070894;28;20052;-73
2023/04/21 10:05:56;;;;;;;10.15;5.47;;;;;;;;;;5079940;28;20455;-73
2023/04/21 10:08:22;;;;;;;;;;;;;;;;;;5087009;28;20059;-73
2023/04/21 10:10:49;;;;;;;6.40;5.00;;;;;;;;;;5068722;28;19916;-72
2023/04/21 10:13:17;;;;;;;11.77;5.43;;;;;;;;;;5070093;28;20048;-72
2023/04/21 10:15:43;;;;;;;9.43;5.30;;;;;;;;;;5082670;28;20375;-73
2023/04/21 10:18:20;;;;;;;10.55;5.55;;;;;;;;;;5081314;28;20115;-72
2023/04/21 10:21:04;;;;;;;10.73;5.63;;;;;;;;;;5094151;28;20123;-72
2023/04/21 10:23:31;;;;;;;10.80;5.88;;;;;;;;;;5092685;28;20052;-73
2023/04/21 10:26:03;;;;;;;10.45;5.47;;;;;;;;;;5074799;28;20454;-73
2023/04/21 10:28:41;;;;;;;8.20;5.30;;;;;;;;;;5055469;28;20052;-73
2023/04/21 10:31:27;;;;;;;11.52;5.50;;;;;;;;;;5059350;28;20479;-72
2023/04/21 10:34:08;;;;;;;8.68;5.20;;;;;;;;;;5072224;28;20059;-72
2023/04/21 10:36:34;;;;;;;8.10;4.82;;;;;;;;;;5072003;28;20082;-72
2023/04/21 10:39:02;;;;;;;7.35;4.82;;;;;;;;;;5071954;28;20045;-72
2023/04/21 10:41:29;;;;;;;8.60;5.80;;;;;;;;;;5072019;28;20055;-72
2023/04/21 10:43:59;;;;;;;9.52;5.10;;;;;;;;;;5069249;28;20135;-72
2023/04/21 10:46:34;;;;;;;8.98;5.00;;;;;;;;;;5085754;28;20104;-72
2023/04/21 10:49:11;;;;;;;9.25;5.10;;;;;;;;;;5065811;28;20040;-72
2023/04/21 10:51:56;;;;;;;7.68;4.88;;;;;;;;;;5073351;28;20043;-72
2023/04/21 10:54:26;;;;;;;9.02;5.63;;;;;;;;;;5072001;28;20044;-72
2023/04/21 10:56:53;;;;;;;11.18;4.57;;;;;;;;;;5085528;28;20052;-72
2023/04/21 10:59:20;;;;;;;8.98;4.82;;;;;;;;;;5117285;27;20056;-72
2023/04/21 11:01:46;;;;;;;10.13;5.50;;;;;;;;;;5107575;27;20047;-72
2023/04/21 11:04:15;;;;;;;6.30;4.20;;;;;;;;;;5081203;28;20115;-72
2023/04/21 11:06:41;;;;;;;5.65;3.95;;;;;;;;;;5077126;28;20080;-73
2023/04/21 11:09:08;;;;;;;8.82;4.18;;;;;;;;;;5083561;28;20039;-73
2023/04/21 11:11:35;;;;;;;11.40;4.60;;;;;;;;;;5085252;28;20503;-72
2023/04/21 11:14:01;;;;;;;9.93;4.70;;;;;;;;;;5071372;28;20040;-72
2023/04/21 11:16:27;;;;;;;7.43;4.43;;;;;;;;;;5071484;28;20127;-72
2023/04/21 11:18:55;;;;;;;8.32;4.75;;;;;;;;;;5071184;28;20048;-72
2023/04/21 11:21:23;;;;;;;8.40;4.10;;;;;;;;;;5082501;28;20047;-72
2023/04/21 11:23:49;;;;;;;6.97;4.20;;;;;;;;;;5073605;28;20080;-72
2023/04/21 11:26:16;;;;;;;7.78;3.88;;;;;;;;;;5060248;28;20621;-72
2023/04/21 11:28:42;;;;;;;10.77;4.50;;;;;;;;;;5070842;28;20053;-72
2023/04/21 11:31:08;;;;;;;8.95;3.95;;;;;;;;;;5078846;28;20051;-73
2023/04/21 11:33:38;;;;;;;9.13;4.22;;;;;;;;;;5077057;28;20040;-73
2023/04/21 11:36:07;;;;;;;6.50;3.90;;;;;;;;;;5054605;28;20044;-73
2023/04/21 11:38:37;;;;;;;5.03;3.17;;;;;;;;;;5071028;28;20063;-73
2023/04/21 11:41:04;;;;;;;7.00;3.67;;;;;;;;;;5070280;28;20433;-73
2023/04/21 11:43:30;;;;;;;6.45;3.60;;;;;;;;;;5071252;28;20047;-73
2023/04/21 11:46:10;;;;;;;7.55;3.58;;;;;;;;;;5070432;28;20519;-73
2023/04/21 11:48:36;;;;;;;4.95;3.05;;;;;;;;;;5057924;28;20522;-73
2023/04/21 11:51:02;;;;;;;6.70;3.97;;;;;;;;;;5053807;28;20131;-73
2023/04/21 11:53:29;;;;;;;6.72;3.47;;;;;;;;;;5071003;28;20396;-72
2023/04/21 11:55:55;;;;;;;7.90;3.70;;;;;;;;;;5070304;28;20059;-73
2023/04/21 11:58:21;;;;;;;6.47;3.60;;;;;;;;;;5074049;28;20044;-73
2023/04/21 12:00:49;;;;;;;9.15;3.63;;;;;;;;;;5080839;28;20464;-73
2023/04/21 12:03:16;;;;;;;6.93;3.25;;;;;;;;;;5070167;28;20403;-73
2023/04/21 12:05:42;;;;;;;6.68;3.30;;;;;;;;;;5070231;28;20048;-73
2023/04/21 12:08:13;;;;;;;8.90;3.67;;;;;;;;;;5084776;28;20051;-73
2023/04/21 12:10:43;;;;;;;5.88;3.25;;;;;;;;;;5097425;27;20040;-73
2023/04/21 12:13:10;;;;;;;8.07;3.72;;;;;;;;;;5124790;27;20498;-73
2023/04/21 12:15:36;;;;;;;11.57;3.72;;;;;;;;;;5070520;28;20037;-73
2023/04/21 12:18:02;;;;;;;6.85;3.10;;;;;;;;;;5053363;28;20054;-72
2023/04/21 12:20:28;;;;;;;5.32;2.95;;;;;;;;;;5069696;28;20036;-72
2023/04/21 12:22:55;;;;;;;6.18;3.47;;;;;;;;;;5103675;28;20044;-72
2023/04/21 12:25:21;;;;;;;8.50;3.33;;;;;;;;;;5072718;28;20067;-73
2023/04/21 12:27:51;;;;;;;5.30;3.25;;;;;;;;;;5070054;28;20076;-73
2023/04/21 12:30:18;;;;;;;6.60;2.97;;;;;;;;;;5084021;28;20469;-73
2023/04/21 12:32:44;;;;;;;5.55;2.83;;;;;;;;;;5070925;28;20047;-73
2023/04/21 12:35:10;;;;;;;7.50;3.20;;;;;;;;;;5052765;28;20123;-73
2023/04/21 12:37:37;;;;;;;10.95;3.55;;;;;;;;;;5069463;28;20101;-73
2023/04/21 12:40:04;;;;;;;5.50;3.00;;;;;;;;;;5069686;28;20392;-72
2023/04/21 12:42:30;;;;;;;5.53;2.75;;;;;;;;;;5052861;28;20115;-73
2023/04/21 12:44:56;;;;;;;8.55;2.78;;;;;;;;;;5072697;28;20054;-73
2023/04/21 12:47:23;;;;;;;5.60;2.70;;;;;;;;;;5063538;28;20045;-76
2023/04/21 12:49:49;;;;;;;7.97;2.45;;;;;;;;;;5100178;28;20060;-78
2023/04/21 12:52:15;;;;;;;7.85;2.70;;;;;;;;;;5068296;28;20458;-78
2023/04/21 12:54:43;;;;;;;6.20;2.80;;;;;;;;;;5068144;28;20059;-77
2023/04/21 12:57:10;;;;;;;7.00;2.70;;;;;;;;;;5101955;28;20059;-77
2023/04/21 12:59:36;;;;;;;4.82;2.30;;;;;;;;;;5101941;28;20043;-77
2023/04/21 13:02:02;;;;;;;3.97;2.40;;;;;;;;;;5068007;28;20059;-77
2023/04/21 13:04:28;;;;;;;5.72;2.35;;;;;;;;;;5100980;28;20087;-77
2023/04/21 13:06:54;;;;;;;6.07;2.80;;;;;;;;;;5070803;28;20048;-78
2023/04/21 13:09:20;;;;;;;3.53;2.33;;;;;;;;;;5104033;27;20101;-79
2023/04/21 13:11:46;;;;;;;6.63;2.45;;;;;;;;;;5053770;28;20041;-79
2023/04/21 13:14:14;;;;;;;3.83;2.38;;;;;;;;;;5067868;28;20694;-79
2023/04/21 13:16:40;;;;;;;3.70;2.10;;;;;;;;;;5068150;28;20044;-79
2023/04/21 13:19:07;;;;;;;4.10;2.30;;;;;;;;;;5069552;28;20451;-79
2023/04/21 13:21:33;;;;;;;5.70;2.55;;;;;;;;;;5102591;28;20051;-78
2023/04/21 13:24:01;;;;;;;4.85;2.58;;;;;;;;;;5066291;28;20774;-78
2023/04/21 13:26:27;;;;;;;4.72;2.40;;;;;;;;;;5047700;28;20037;-77
2023/04/21 13:28:53;;;;;;;4.75;2.40;;;;;;;;;;5050488;28;20083;-77
2023/04/21 13:31:19;;;;;;;4.25;2.28;;;;;;;;;;5099816;28;20148;-75
2023/04/21 13:33:45;;;;;;;4.63;2.42;;;;;;;;;;5067401;28;20432;-75
2023/04/21 13:36:11;;;;;;;4.13;2.30;;;;;;;;;;5097042;28;20037;-75
2023/04/21 13:38:39;;;;;;;5.15;2.22;;;;;;;;;;5100296;28;20085;-75
2023/04/21 13:41:06;;;;;;;5.63;2.30;;;;;;;;;;5083730;28;20152;-74
2023/04/21 13:43:32;;;;;;;4.85;2.30;;;;;;;;;;5098548;28;20040;-74
2023/04/21 13:45:58;;;;;;;4.72;2.47;;;;;;;;;;5068499;28;20044;-74
2023/04/21 13:48:25;;;;;;;7.10;2.65;;;;;;;;;;5051418;28;20083;-74
2023/04/21 13:50:51;;;;;;;5.22;2.10;;;;;;;;;;5069170;28;20549;-74
2023/04/21 13:53:17;;;;;;;7.22;2.30;;;;;;;;;;5069168;28;20044;-73
2023/04/21 13:55:44;;;;;;;7.53;2.58;;;;;;;;;;5071020;28;20102;-72
2023/04/21 13:58:10;;;;;;;5.38;2.20;;;;;;;;;;5071450;28;20049;-74
2023/04/21 14:00:37;;;;;;;4.18;2.20;;;;;;;;;;5069101;28;20036;-74
2023/04/21 14:03:04;;;;;;;6.13;2.28;;;;;;;;;;5072754;28;20082;-73
2023/04/21 14:05:30;;;;;;;6.38;2.50;;;;;;;;;;5071172;28;20116;-73
2023/04/21 14:07:57;;;;;;;4.63;2.47;;;;;;;;;;5070034;28;20074;-74
2023/04/21 14:10:23;;;;;;;6.15;2.58;;;;;;;;;;5067884;28;20044;-73
2023/04/21 14:12:49;;;;;;;5.53;2.33;;;;;;;;;;5070685;28;20110;-73
2023/04/21 14:15:15;;;;;;;7.05;2.83;;;;;;;;;;5083780;28;20067;-73
2023/04/21 14:17:41;;;;;;;6.03;2.20;;;;;;;;;;5104895;28;20082;-74
2023/04/21 14:20:10;;;;;;;6.43;2.22;;;;;;;;;;5071458;28;20040;-73
2023/04/21 14:22:36;;;;;;;4.82;2.38;;;;;;;;;;5088860;28;20048;-74
2023/04/21 14:25:02;;;;;;;6.57;2.30;;;;;;;;;;5103284;28;20088;-73
2023/04/21 14:27:29;;;;;;;6.38;2.35;;;;;;;;;;5069547;28;20049;-72
2023/04/21 14:29:58;;;;;;;3.85;2.25;;;;;;;;;;5068437;28;20758;-74
2023/04/21 14:32:24;;;;;;;5.78;2.20;;;;;;;;;;5102244;28;20040;-75
2023/04/21 14:34:52;;;;;;;4.30;2.10;;;;;;;;;;5100599;28;20040;-74
2023/04/21 14:37:19;;;;;;;7.03;2.20;;;;;;;;;;5069764;28;20106;-74